Terminal Aerodrome Forecast
Issued by NWS

Home | Current Version | Previous Version | Graphics & Text | Print | Product List | Glossary On
Versions: 1 2 3 4 5 6 7 8 9 10 11 12 13 14 15 16 17 18 19 20 21 22 23 24 25 26 27 28 29
910
FTUS43 KUNR 221429 AAB
TAFGCC
TAF AMD
KGCC 221429Z 2214/2312 15010KT P6SM SCT015 OVC050
      TEMPO 2214/2216 BKN015
     FM221600 14020G30KT P6SM SCT025 BKN050
      TEMPO 2217/2221 -SHRA BKN025
     FM230400 14015KT P6SM BKN010 OVC100=

USA.gov is the U.S. government's official web portal to all federal, state and local government web resources and services.